Time;durP1;ratioP1;P1;durP2;ratioP2;P2;SDS_P1;SDS_P2;PMS_P1;PMS_P2;Temp;Humidity;BMP_temperature;BMP_pressure;BME280_temperature;BME280_humidity;BME280_pressure;Samples;Min_cycle;Max_cycle;Signal;HPM_P1;HPM_P2
2021/07/27 01:01:43;;;;;;;3.57;1.83;;;19.30;92.60;;;;;;5276904;23;20431;-81
2021/07/27 01:04:09;;;;;;;5.63;2.75;;;19.40;92.60;;;;;;5013494;28;20065;-80
2021/07/27 01:06:34;;;;;;;3.70;2.22;;;19.50;92.40;;;;;;5013554;28;20463;-79
2021/07/27 01:09:01;;;;;;;4.97;2.55;;;19.60;92.20;;;;;;5012838;28;20026;-80
2021/07/27 01:11:27;;;;;;;4.30;2.30;;;19.50;92.20;;;;;;5013237;28;20029;-80
2021/07/27 01:13:53;;;;;;;3.13;2.28;;;19.50;92.20;;;;;;5014089;28;20037;-80
2021/07/27 01:16:22;;;;;;;4.30;2.80;;;19.60;92.20;;;;;;5012765;28;20322;-80
2021/07/27 01:38:15;;;;;;;4.82;2.67;;;19.40;92.30;;;;;;5013510;28;20092;-79
2021/07/27 01:43:35;;;;;;;6.03;3.03;;;19.50;92.30;;;;;;5010461;28;20475;-79
2021/07/27 01:46:00;;;;;;;6.25;3.15;;;19.40;92.40;;;;;;5013148;28;20026;-79
2021/07/27 01:48:26;;;;;;;3.63;2.30;;;19.40;92.40;;;;;;5013656;28;20109;-78
2021/07/27 01:50:51;;;;;;;3.53;2.50;;;19.30;92.40;;;;;;5013658;28;20022;-79
2021/07/27 01:53:26;;;;;;;3.53;2.33;;;19.30;92.30;;;;;;5012262;28;20023;-80
2021/07/27 01:55:54;;;;;;;5.25;2.90;;;19.30;92.30;;;;;;5012481;28;20038;-79
2021/07/27 01:58:19;;;;;;;5.28;2.60;;;19.30;92.40;;;;;;5013141;28;20113;-79
2021/07/27 02:00:45;;;;;;;5.18;2.50;;;19.30;92.20;;;;;;5012582;28;20543;-79
2021/07/27 02:03:10;;;;;;;4.18;2.72;;;19.30;92.20;;;;;;5011862;28;20137;-80
2021/07/27 02:05:39;;;;;;;9.82;2.75;;;19.30;92.30;;;;;;5012616;28;20030;-80
2021/07/27 02:08:05;;;;;;;5.88;2.53;;;19.30;92.30;;;;;;5013058;28;20052;-80
2021/07/27 02:10:30;;;;;;;4.22;2.40;;;19.30;92.50;;;;;;5012473;28;20117;-79
2021/07/27 02:13:03;;;;;;;4.22;2.83;;;19.30;92.50;;;;;;5013664;28;20029;-79
2021/07/27 02:15:42;;;;;;;4.40;2.90;;;19.30;92.30;;;;;;5012015;28;20161;-79
2021/07/27 02:18:08;;;;;;;5.38;2.50;;;19.30;92.50;;;;;;5013128;28;20026;-79
2021/07/27 02:20:35;;;;;;;6.15;3.00;;;19.30;92.30;;;;;;5013558;28;20061;-79
2021/07/27 02:23:04;;;;;;;5.03;3.25;;;19.30;92.20;;;;;;5013547;28;20112;-79
2021/07/27 02:25:30;;;;;;;6.65;3.00;;;19.20;92.40;;;;;;5012478;28;20068;-79
2021/07/27 02:27:58;;;;;;;5.05;3.08;;;19.20;92.40;;;;;;5012388;28;20030;-78
2021/07/27 02:30:34;;;;;;;4.25;2.72;;;19.10;92.50;;;;;;5011804;28;20061;-78
2021/07/27 02:33:00;;;;;;;4.78;3.10;;;19.10;92.50;;;;;;5012834;28;20061;-79
2021/07/27 02:35:29;;;;;;;4.30;2.50;;;19.10;92.50;;;;;;5016440;28;20489;-79
2021/07/27 02:37:55;;;;;;;5.38;2.70;;;19.10;92.40;;;;;;5016825;28;20026;-80
2021/07/27 02:40:21;;;;;;;4.30;3.05;;;19.10;92.50;;;;;;5015487;28;20128;-80
2021/07/27 02:42:48;;;;;;;5.00;2.70;;;19.10;92.50;;;;;;5016836;28;20108;-80
2021/07/27 02:45:14;;;;;;;5.53;3.10;;;19.10;92.50;;;;;;5015422;28;20040;-80
2021/07/27 02:47:43;;;;;;;7.93;3.53;;;19.10;92.60;;;;;;5015590;28;20116;-79
2021/07/27 02:50:09;;;;;;;4.80;3.10;;;19.10;92.50;;;;;;5015295;28;20057;-80
2021/07/27 02:52:36;;;;;;;4.22;2.80;;;19.10;92.50;;;;;;5015660;28;20030;-80
2021/07/27 02:55:02;;;;;;;4.72;3.28;;;19.10;92.60;;;;;;5016604;28;20033;-80
2021/07/27 02:57:28;;;;;;;9.57;3.72;;;19.10;92.50;;;;;;5014671;28;20128;-80
2021/07/27 02:59:58;;;;;;;5.78;3.17;;;19.00;92.50;;;;;;5016444;28;20109;-80
2021/07/27 03:02:46;;;;;;;4.45;2.90;;;19.00;92.60;;;;;;5014423;28;20553;-79
2021/07/27 03:05:14;;;;;;;3.90;2.63;;;18.90;92.70;;;;;;5015916;28;20477;-79
2021/07/27 03:10:21;;;;;;;4.25;2.60;;;19.00;92.70;;;;;;5015730;28;20052;-80
2021/07/27 03:12:57;;;;;;;5.57;3.05;;;19.00;92.70;;;;;;5016020;28;20030;-79
2021/07/27 03:15:24;;;;;;;5.65;2.92;;;18.90;92.60;;;;;;5015518;28;20068;-79
2021/07/27 03:17:56;;;;;;;4.40;2.90;;;19.00;92.50;;;;;;5015123;28;20025;-79
2021/07/27 03:20:23;;;;;;;5.13;3.13;;;19.00;92.50;;;;;;5015493;28;20057;-80
2021/07/27 03:22:52;;;;;;;4.88;3.22;;;18.90;92.60;;;;;;5015954;28;20022;-79
2021/07/27 03:25:19;;;;;;;5.70;2.88;;;19.00;92.50;;;;;;5014641;28;20098;-79
2021/07/27 03:27:49;;;;;;;5.15;3.10;;;19.00;92.40;;;;;;5016037;28;20026;-80
2021/07/27 03:30:16;;;;;;;4.22;3.10;;;19.00;92.30;;;;;;5014406;28;20026;-79
2021/07/27 03:32:42;;;;;;;7.45;3.45;;;19.00;92.40;;;;;;5015800;28;20061;-80
2021/07/27 03:35:08;;;;;;;5.32;3.35;;;19.00;92.50;;;;;;5015382;28;20034;-86
2021/07/27 03:37:34;;;;;;;4.82;2.80;;;18.90;92.40;;;;;;5015832;28;20125;-79
2021/07/27 03:40:01;;;;;;;5.55;3.00;;;18.90;92.40;;;;;;5014766;28;20117;-80
2021/07/27 03:42:27;;;;;;;4.95;2.97;;;18.80;92.50;;;;;;5015195;28;20025;-78
2021/07/27 03:45:02;;;;;;;7.20;2.78;;;18.70;92.60;;;;;;5015316;28;20036;-79
2021/07/27 03:47:27;;;;;;;6.18;2.90;;;18.70;92.70;;;;;;5014220;28;20030;-79
2021/07/27 03:49:56;;;;;;;6.78;3.15;;;18.70;92.70;;;;;;5014312;28;20021;-80
2021/07/27 03:52:23;;;;;;;4.68;3.58;;;18.70;92.80;;;;;;5013872;28;20075;-79
2021/07/27 03:54:49;;;;;;;5.25;3.15;;;18.60;92.70;;;;;;5014000;28;20033;-79
2021/07/27 03:57:15;;;;;;;4.50;2.90;;;18.60;92.80;;;;;;5014639;28;20120;-79
2021/07/27 03:59:41;;;;;;;5.60;3.10;;;18.60;92.80;;;;;;5015226;28;20463;-80
2021/07/27 04:02:06;;;;;;;3.97;3.17;;;18.50;92.90;;;;;;5013660;28;20053;-79
2021/07/27 04:04:35;;;;;;;6.25;2.92;;;18.50;92.80;;;;;;5013197;28;20399;-79
2021/07/27 04:07:00;;;;;;;7.63;2.95;;;18.60;92.70;;;;;;5013940;28;20029;-79
2021/07/27 04:09:27;;;;;;;4.15;2.80;;;18.50;92.70;;;;;;5013578;28;20026;-79
2021/07/27 04:11:53;;;;;;;4.80;3.00;;;18.50;92.70;;;;;;5013711;28;20030;-78
2021/07/27 04:14:19;;;;;;;5.68;2.85;;;18.60;92.70;;;;;;5014342;28;20030;-79
2021/07/27 04:16:44;;;;;;;5.68;2.90;;;18.50;92.60;;;;;;5013497;28;20030;-79
2021/07/27 04:19:10;;;;;;;5.00;2.83;;;18.50;92.70;;;;;;5013454;28;20021;-79
2021/07/27 04:21:35;;;;;;;5.68;2.85;;;18.50;92.70;;;;;;5013815;28;20030;-79
2021/07/27 04:24:02;;;;;;;5.78;2.75;;;18.60;92.50;;;;;;5013447;28;20056;-78
2021/07/27 04:26:28;;;;;;;5.32;2.78;;;18.60;92.40;;;;;;5013484;28;20108;-79
2021/07/27 04:28:54;;;;;;;6.38;3.03;;;18.60;92.30;;;;;;5014707;28;20040;-79
2021/07/27 04:31:20;;;;;;;4.20;2.78;;;18.60;92.40;;;;;;5014233;28;20026;-79
2021/07/27 04:33:46;;;;;;;5.75;3.13;;;18.60;92.20;;;;;;5012969;28;20026;-79
2021/07/27 04:36:12;;;;;;;5.90;2.78;;;18.60;92.30;;;;;;5013547;28;20388;-90
2021/07/27 04:38:38;;;;;;;4.05;2.83;;;18.70;92.30;;;;;;5014626;28;20084;-79
2021/07/27 04:41:04;;;;;;;4.50;3.17;;;18.60;92.40;;;;;;5013766;28;20030;-80
2021/07/27 04:43:29;;;;;;;5.32;3.00;;;18.70;92.40;;;;;;5013233;28;20048;-80
2021/07/27 04:46:03;;;;;;;4.40;2.97;;;18.70;92.30;;;;;;5013672;28;20045;-80
2021/07/27 04:48:29;;;;;;;5.55;3.17;;;18.70;92.30;;;;;;5013094;28;20026;-80
2021/07/27 04:50:54;;;;;;;4.68;3.03;;;18.60;92.40;;;;;;5013719;28;20052;-79
2021/07/27 04:53:26;;;;;;;4.53;2.97;;;18.70;92.50;;;;;;5013015;28;20026;-80
2021/07/27 04:55:53;;;;;;;3.97;3.08;;;18.70;92.50;;;;;;5012912;28;20026;-79
2021/07/27 04:58:19;;;;;;;5.15;3.05;;;18.70;92.50;;;;;;5013828;28;20459;-80
2021/07/27 05:00:45;;;;;;;5.57;3.05;;;18.80;92.50;;;;;;5013298;28;20026;-81
2021/07/27 05:03:10;;;;;;;4.50;3.13;;;18.80;92.40;;;;;;5014067;28;20049;-80
2021/07/27 05:05:36;;;;;;;9.48;3.33;;;18.80;92.50;;;;;;5013927;28;20041;-81
2021/07/27 05:08:02;;;;;;;6.32;3.58;;;18.80;92.60;;;;;;5014204;28;20056;-80
2021/07/27 05:10:29;;;;;;;5.68;3.20;;;18.90;92.50;;;;;;5012813;28;20026;-79
2021/07/27 05:12:55;;;;;;;8.73;3.38;;;18.90;92.50;;;;;;5013312;28;20443;-80
2021/07/27 05:15:21;;;;;;;6.63;3.55;;;18.90;92.50;;;;;;5012599;28;20026;-80
2021/07/27 05:17:54;;;;;;;8.20;3.63;;;18.90;92.50;;;;;;4997266;28;20050;-80
2021/07/27 05:20:20;;;;;;;4.88;3.13;;;19.00;92.40;;;;;;5012671;28;20477;-80
2021/07/27 05:22:45;;;;;;;5.00;3.33;;;19.10;92.30;;;;;;5013207;28;20026;-80
2021/07/27 05:25:18;;;;;;;4.72;3.05;;;19.10;92.30;;;;;;5013720;28;20026;-80
2021/07/27 05:27:45;;;;;;;13.73;3.08;;;19.20;92.10;;;;;;5012860;28;20037;-80
2021/07/27 05:30:12;;;;;;;6.88;3.25;;;19.30;91.90;;;;;;5012844;28;20464;-79
2021/07/27 05:32:38;;;;;;;5.10;3.35;;;19.40;91.70;;;;;;5012423;28;20037;-79
2021/07/27 05:35:04;;;;;;;6.28;3.40;;;19.40;91.80;;;;;;5012560;28;20133;-78
2021/07/27 05:37:29;;;;;;;5.95;3.10;;;19.40;91.90;;;;;;5012343;28;20022;-80
2021/07/27 05:39:58;;;;;;;8.32;3.40;;;19.50;91.70;;;;;;5013843;28;20423;-79
2021/07/27 05:42:23;;;;;;;6.72;2.58;;;19.60;91.70;;;;;;5012260;28;20022;-80
2021/07/27 05:44:49;;;;;;;5.30;3.13;;;19.60;91.70;;;;;;5012921;28;20482;-79
2021/07/27 05:47:15;;;;;;;6.03;3.20;;;19.80;91.60;;;;;;5012350;28;20033;-79
2021/07/27 05:49:41;;;;;;;4.07;3.30;;;19.80;91.60;;;;;;5013420;28;20026;-79
2021/07/27 05:52:11;;;;;;;5.13;3.30;;;19.90;91.60;;;;;;5013878;28;20033;-79
2021/07/27 05:54:37;;;;;;;5.03;2.70;;;20.00;91.20;;;;;;5013400;28;20056;-79
2021/07/27 05:57:03;;;;;;;5.32;2.85;;;20.10;90.80;;;;;;5012729;28;20530;-79
2021/07/27 05:59:28;;;;;;;4.00;2.88;;;20.00;90.80;;;;;;5012087;28;20041;-79
2021/07/27 06:01:55;;;;;;;6.25;3.20;;;20.10;90.60;;;;;;5013443;28;20050;-78
2021/07/27 06:04:21;;;;;;;4.07;2.97;;;20.10;90.50;;;;;;5011889;28;20100;-79
2021/07/27 06:06:47;;;;;;;6.88;3.13;;;20.20;90.50;;;;;;5013672;28;20022;-79
2021/07/27 06:09:14;;;;;;;6.93;3.35;;;20.30;90.30;;;;;;5016492;28;20125;-79
2021/07/27 06:11:40;;;;;;;8.88;3.45;;;20.40;90.00;;;;;;5016967;28;20033;-79
2021/07/27 06:14:09;;;;;;;6.15;3.10;;;20.40;89.30;;;;;;5016399;28;20034;-79
2021/07/27 06:16:39;;;;;;;5.97;3.25;;;20.40;89.20;;;;;;5015856;28;20037;-80
2021/07/27 06:19:08;;;;;;;5.53;3.50;;;20.40;89.10;;;;;;5016228;28;20030;-80
2021/07/27 06:21:36;;;;;;;7.03;3.40;;;20.40;89.70;;;;;;5016934;28;20414;-80
2021/07/27 06:24:02;;;;;;;4.75;2.85;;;20.30;89.80;;;;;;5016370;28;20033;-79
2021/07/27 06:26:27;;;;;;;4.75;2.75;;;20.40;90.40;;;;;;5015674;28;20032;-80
2021/07/27 06:28:53;;;;;;;5.07;3.05;;;20.40;90.40;;;;;;5015995;28;20061;-80
2021/07/27 06:31:19;;;;;;;5.43;2.80;;;20.40;90.20;;;;;;5015994;28;20026;-82
2021/07/27 06:33:45;;;;;;;4.20;3.05;;;20.50;90.40;;;;;;5015220;28;20420;-78
2021/07/27 06:36:12;;;;;;;4.93;2.78;;;20.60;90.00;;;;;;5014739;28;20514;-79
2021/07/27 06:38:38;;;;;;;6.05;3.00;;;20.70;90.00;;;;;;5014842;28;20029;-78
2021/07/27 06:41:08;;;;;;;6.72;2.60;;;20.70;89.90;;;;;;5015211;28;20061;-78
2021/07/27 06:43:35;;;;;;;5.70;3.28;;;20.70;89.40;;;;;;5014127;28;20061;-80
2021/07/27 06:46:00;;;;;;;7.07;2.90;;;20.80;89.20;;;;;;5015564;28;20109;-79
2021/07/27 06:48:26;;;;;;;3.78;2.67;;;20.80;88.70;;;;;;5015792;28;20054;-78
2021/07/27 06:50:52;;;;;;;5.15;2.85;;;20.90;88.10;;;;;;5015052;28;20029;-80
2021/07/27 06:53:18;;;;;;;6.15;3.10;;;20.90;88.00;;;;;;5016482;28;20093;-79
2021/07/27 06:55:45;;;;;;;5.85;2.75;;;21.00;88.10;;;;;;5015882;28;20128;-78
2021/07/27 06:58:10;;;;;;;7.15;2.97;;;21.00;87.50;;;;;;5015855;28;20034;-79
2021/07/27 07:00:39;;;;;;;8.32;3.40;;;21.10;87.40;;;;;;5014190;28;20083;-78
2021/07/27 07:03:08;;;;;;;7.47;2.95;;;21.20;87.50;;;;;;5014134;28;20089;-78
2021/07/27 07:05:34;;;;;;;4.47;3.20;;;21.20;87.20;;;;;;4999964;28;20053;-78
2021/07/27 07:08:01;;;;;;;4.93;2.63;;;21.20;86.40;;;;;;5015988;28;20021;-79
2021/07/27 07:10:27;;;;;;;5.50;3.08;;;21.30;86.60;;;;;;5015500;28;20079;-78
2021/07/27 07:12:52;;;;;;;7.10;2.90;;;21.30;85.50;;;;;;5014716;28;20124;-78
2021/07/27 07:15:18;;;;;;;5.82;3.00;;;21.30;86.10;;;;;;5015648;28;20111;-78
2021/07/27 07:17:44;;;;;;;5.03;2.95;;;21.40;85.40;;;;;;5014221;28;20040;-78
2021/07/27 07:20:10;;;;;;;6.40;2.90;;;21.40;85.40;;;;;;5013625;28;20026;-80
2021/07/27 07:22:36;;;;;;;6.55;3.00;;;21.50;85.70;;;;;;5015353;28;20112;-78
2021/07/27 07:25:02;;;;;;;5.95;3.15;;;21.40;85.60;;;;;;5014481;28;20135;-80
2021/07/27 07:27:27;;;;;;;4.57;3.08;;;21.50;85.50;;;;;;5014145;28;20030;-81
2021/07/27 07:29:54;;;;;;;2.97;2.33;;;21.50;85.60;;;;;;5013021;28;20029;-87
2021/07/27 07:32:20;;;;;;;5.15;2.85;;;21.50;85.40;;;;;;5014765;28;20030;-85
2021/07/27 07:34:46;;;;;;;3.58;2.67;;;21.60;85.10;;;;;;5014007;28;20037;-86
2021/07/27 07:37:12;;;;;;;4.00;2.58;;;21.60;85.10;;;;;;5015760;28;20084;-85
2021/07/27 07:39:37;;;;;;;4.90;2.90;;;21.70;84.50;;;;;;5013436;28;20053;-80
2021/07/27 07:42:04;;;;;;;5.05;2.97;;;21.80;84.60;;;;;;5013884;28;20057;-79
2021/07/27 07:44:30;;;;;;;4.47;3.20;;;21.80;84.20;;;;;;5014314;28;20069;-78
2021/07/27 07:46:56;;;;;;;6.00;3.08;;;21.80;84.50;;;;;;5014258;28;20026;-78
2021/07/27 07:49:21;;;;;;;3.85;2.53;;;21.80;84.70;;;;;;5014106;28;20387;-78
2021/07/27 07:51:47;;;;;;;4.70;3.00;;;21.80;84.20;;;;;;5013867;28;20474;-80
2021/07/27 07:54:14;;;;;;;4.10;2.92;;;21.70;84.10;;;;;;5013725;28;20053;-79
2021/07/27 07:56:44;;;;;;;5.82;3.03;;;21.70;84.20;;;;;;5014140;28;20287;-78
2021/07/27 07:59:10;;;;;;;3.30;2.40;;;21.80;84.10;;;;;;4997220;28;20034;-78
2021/07/27 08:01:36;;;;;;;3.80;2.80;;;21.90;84.20;;;;;;5013269;28;20064;-81
2021/07/27 08:04:02;;;;;;;7.50;2.80;;;22.00;84.00;;;;;;5013546;28;20391;-86
2021/07/27 08:06:30;;;;;;;4.38;3.00;;;22.10;83.70;;;;;;5014105;28;20606;-81
2021/07/27 08:08:56;;;;;;;8.77;3.03;;;22.10;82.90;;;;;;5014128;28;20068;-81
2021/07/27 08:11:21;;;;;;;6.05;2.80;;;22.20;83.50;;;;;;5012907;28;20026;-86
2021/07/27 08:13:47;;;;;;;6.10;2.90;;;22.10;82.30;;;;;;5013807;28;20029;-83
2021/07/27 08:16:13;;;;;;;5.40;3.00;;;22.10;81.50;;;;;;5013482;28;20418;-82
2021/07/27 08:18:39;;;;;;;7.22;2.75;;;22.10;80.80;;;;;;5014210;28;20101;-80
2021/07/27 08:21:05;;;;;;;9.02;2.70;;;22.10;80.70;;;;;;5015008;28;20029;-82
2021/07/27 08:23:31;;;;;;;3.83;2.72;;;22.00;80.60;;;;;;5014156;28;20064;-84
2021/07/27 08:25:59;;;;;;;6.03;3.00;;;22.00;80.30;;;;;;5013945;28;20044;-83
2021/07/27 08:28:25;;;;;;;3.90;2.90;;;22.00;80.30;;;;;;5003918;28;20042;-83
2021/07/27 08:30:51;;;;;;;3.97;2.72;;;21.90;80.30;;;;;;4995373;28;20022;-81
2021/07/27 08:33:17;;;;;;;7.57;3.10;;;21.90;81.00;;;;;;5012187;28;20372;-79
2021/07/27 08:35:42;;;;;;;3.95;3.00;;;21.90;80.10;;;;;;5013936;28;20037;-80
2021/07/27 08:38:08;;;;;;;5.20;2.80;;;21.90;79.20;;;;;;5014914;28;20030;-77
2021/07/27 08:40:39;;;;;;;4.53;2.67;;;21.90;79.00;;;;;;5012686;28;20022;-78
2021/07/27 08:43:07;;;;;;;4.45;3.45;;;21.90;79.40;;;;;;5014414;28;20026;-82
2021/07/27 08:45:32;;;;;;;4.88;2.80;;;22.00;79.60;;;;;;4996840;28;20030;-82
2021/07/27 08:47:59;;;;;;;5.20;3.05;;;22.10;78.80;;;;;;5013133;28;20028;-83
2021/07/27 08:50:26;;;;;;;5.45;3.15;;;22.20;79.20;;;;;;5012225;28;20038;-83
2021/07/27 08:52:53;;;;;;;4.10;2.72;;;22.30;78.30;;;;;;5012283;28;20025;-80
2021/07/27 08:55:18;;;;;;;5.25;3.30;;;22.30;78.20;;;;;;5013331;28;20033;-82
2021/07/27 08:57:53;;;;;;;3.60;2.75;;;22.40;78.30;;;;;;5012926;28;20021;-81
2021/07/27 09:00:19;;;;;;;3.65;2.70;;;22.60;77.20;;;;;;5014136;28;20030;-82
2021/07/27 09:02:45;;;;;;;4.47;3.45;;;22.80;77.00;;;;;;5013770;28;20836;-86
2021/07/27 09:05:12;;;;;;;5.65;3.03;;;22.90;76.20;;;;;;5014927;28;20497;-85
2021/07/27 09:07:38;;;;;;;4.90;3.03;;;23.10;76.20;;;;;;5013334;28;20069;-88
2021/07/27 09:10:20;;;;;;;5.75;3.00;;;23.20;75.60;;;;;;5015544;28;20026;-88
2021/07/27 09:12:54;;;;;;;5.40;3.10;;;23.20;73.90;;;;;;5014803;28;20041;-82
2021/07/27 09:15:21;;;;;;;3.70;2.83;;;23.20;73.10;;;;;;5015634;28;20117;-85
2021/07/27 09:18:01;;;;;;;4.90;2.90;;;23.20;74.00;;;;;;5013158;28;20042;-84
2021/07/27 09:20:32;;;;;;;6.85;2.85;;;23.20;73.80;;;;;;5012246;28;20025;-84
2021/07/27 09:22:58;;;;;;;5.03;3.13;;;23.20;74.10;;;;;;5014249;28;20065;-84
2021/07/27 09:25:26;;;;;;;5.25;3.33;;;23.30;73.50;;;;;;5013690;28;20745;-81
2021/07/27 09:28:08;;;;;;;5.68;3.40;;;23.40;72.70;;;;;;5013104;28;20025;-84
2021/07/27 09:30:36;;;;;;;4.38;2.95;;;23.50;71.50;;;;;;5012720;28;20471;-85
2021/07/27 09:33:02;;;;;;;5.68;3.13;;;23.60;72.00;;;;;;5010159;28;20026;-83
2021/07/27 09:35:28;;;;;;;4.07;3.08;;;23.70;71.60;;;;;;5011645;28;20033;-84
2021/07/27 09:38:04;;;;;;;6.93;3.00;;;23.80;71.20;;;;;;5012341;28;20029;-82
2021/07/27 09:40:30;;;;;;;5.18;2.85;;;23.80;69.40;;;;;;5012413;28;20032;-84
2021/07/27 09:42:57;;;;;;;5.70;2.83;;;23.90;70.20;;;;;;5014905;28;20026;-81
2021/07/27 09:45:26;;;;;;;5.55;2.97;;;24.00;70.30;;;;;;5016259;28;20391;-89
2021/07/27 09:47:54;;;;;;;5.20;2.95;;;23.90;69.50;;;;;;5016623;28;20022;-84
2021/07/27 09:50:23;;;;;;;5.55;3.08;;;24.00;69.30;;;;;;5016854;28;20033;-85
2021/07/27 09:52:49;;;;;;;4.72;3.10;;;24.00;69.40;;;;;;5019130;28;20038;-82
2021/07/27 09:55:15;;;;;;;5.95;3.03;;;24.00;70.00;;;;;;5018329;28;20030;-82
2021/07/27 09:57:41;;;;;;;4.70;2.95;;;24.00;69.70;;;;;;5017683;28;20040;-82
2021/07/27 10:00:07;;;;;;;3.95;2.75;;;23.90;70.60;;;;;;5016483;28;20052;-84
2021/07/27 10:02:42;;;;;;;6.97;2.90;;;23.90;70.80;;;;;;5016707;28;20113;-80
2021/07/27 10:05:11;;;;;;;6.43;3.10;;;24.00;70.00;;;;;;5016125;28;20053;-81
2021/07/27 10:07:37;;;;;;;7.25;3.10;;;24.00;70.30;;;;;;5015653;28;20088;-79
2021/07/27 10:10:07;;;;;;;5.00;2.83;;;24.00;70.30;;;;;;5015215;28;20050;-80
2021/07/27 10:12:36;;;;;;;15.15;3.47;;;24.00;70.00;;;;;;5016424;28;20036;-80
2021/07/27 10:15:13;;;;;;;5.40;3.00;;;23.90;70.20;;;;;;5015717;28;20038;-81
2021/07/27 10:17:52;;;;;;;5.28;2.78;;;23.90;69.90;;;;;;4995612;28;20061;-82
2021/07/27 10:20:22;;;;;;;5.30;3.38;;;24.00;70.10;;;;;;4996237;28;20100;-81
2021/07/27 10:22:48;;;;;;;4.28;3.17;;;24.10;70.10;;;;;;4995830;28;20073;-80
2021/07/27 10:25:14;;;;;;;4.43;2.88;;;24.20;70.10;;;;;;5014265;28;20104;-81
2021/07/27 10:28:01;;;;;;;3.85;2.60;;;24.30;70.20;;;;;;5015045;28;20451;-81
2021/07/27 10:30:33;;;;;;;3.90;3.30;;;24.30;69.20;;;;;;5016341;28;20117;-83
2021/07/27 10:32:59;;;;;;;3.72;2.47;;;24.40;69.60;;;;;;5014877;28;20469;-79
2021/07/27 10:35:33;;;;;;;3.40;2.47;;;24.40;69.80;;;;;;5014772;28;20450;-83
2021/07/27 10:38:12;;;;;;;3.58;2.65;;;24.30;68.00;;;;;;5015576;28;20022;-81
2021/07/27 10:40:38;;;;;;;3.08;2.50;;;24.40;67.40;;;;;;5014810;28;20033;-80
2021/07/27 10:43:07;;;;;;;4.65;3.15;;;24.40;66.80;;;;;;5015797;28;20129;-83
2021/07/27 10:45:33;;;;;;;5.47;3.05;;;24.40;66.90;;;;;;5014675;28;20026;-85
2021/07/27 10:47:59;;;;;;;4.10;2.53;;;24.40;66.60;;;;;;5015448;28;20050;-84
2021/07/27 10:50:30;;;;;;;3.40;2.65;;;24.40;67.20;;;;;;5015234;28;20065;-88
2021/07/27 10:53:07;;;;;;;2.97;2.63;;;24.30;68.00;;;;;;5015095;28;20463;-86
2021/07/27 10:55:34;;;;;;;4.00;2.65;;;24.40;67.30;;;;;;5013662;28;20088;-81
2021/07/27 10:58:04;;;;;;;3.63;2.53;;;24.40;66.60;;;;;;5015684;28;20030;-87
2021/07/27 11:00:40;;;;;;;3.38;2.50;;;24.40;65.00;;;;;;5014928;28;20034;-85
2021/07/27 11:03:06;;;;;;;3.13;2.50;;;24.30;64.60;;;;;;5014975;28;20060;-83
2021/07/27 11:05:32;;;;;;;4.13;2.28;;;24.40;64.60;;;;;;5011859;28;20117;-83
2021/07/27 11:07:57;;;;;;;4.55;3.00;;;24.50;63.50;;;;;;5011867;28;20022;-83
2021/07/27 11:10:25;;;;;;;5.78;2.70;;;24.60;64.50;;;;;;5016060;28;20490;-84
2021/07/27 11:12:51;;;;;;;6.00;3.00;;;24.60;63.80;;;;;;5015937;28;20053;-87
2021/07/27 11:15:23;;;;;;;4.32;2.70;;;24.70;63.50;;;;;;5014858;28;20061;-81
2021/07/27 11:17:50;;;;;;;2.65;2.28;;;24.70;62.30;;;;;;5011808;28;20030;-82
2021/07/27 11:20:24;;;;;;;3.78;2.58;;;24.90;62.20;;;;;;5006080;28;20038;-86
2021/07/27 11:22:53;;;;;;;4.05;2.70;;;24.90;61.20;;;;;;4995068;28;20032;-84
2021/07/27 11:25:20;;;;;;;4.70;2.70;;;25.00;61.30;;;;;;5013064;28;20030;-82
2021/07/27 11:27:47;;;;;;;4.68;2.65;;;25.00;61.40;;;;;;5012718;28;20103;-85
2021/07/27 11:30:13;;;;;;;3.13;2.60;;;25.00;60.90;;;;;;5015801;28;20029;-85
2021/07/27 11:32:43;;;;;;;4.45;2.80;;;25.00;60.90;;;;;;5014635;28;20030;-84
2021/07/27 11:35:10;;;;;;;3.45;2.50;;;25.00;61.20;;;;;;5014775;28;20045;-86
2021/07/27 11:37:39;;;;;;;4.03;2.53;;;25.00;61.20;;;;;;5012971;28;20030;-90
2021/07/27 11:40:05;;;;;;;4.53;2.63;;;25.10;60.80;;;;;;5015074;28;20030;-84
2021/07/27 11:42:33;;;;;;;3.08;2.40;;;25.10;60.80;;;;;;5014278;28;20109;-85
2021/07/27 11:45:04;;;;;;;2.67;2.00;;;25.20;59.90;;;;;;5013694;28;20044;-85
2021/07/27 11:47:43;;;;;;;3.42;2.22;;;25.20;59.40;;;;;;4995147;28;20036;-88
2021/07/27 11:50:30;;;;;;;3.03;2.30;;;25.20;60.20;;;;;;5003570;28;20032;-90
2021/07/27 11:53:00;;;;;;;4.40;2.38;;;25.30;59.30;;;;;;4995580;28;20472;-87
2021/07/27 11:55:30;;;;;;;5.25;2.75;;;25.40;59.60;;;;;;5004845;28;20034;-86
2021/07/27 11:57:58;;;;;;;3.63;2.53;;;25.50;59.70;;;;;;5015123;28;20030;-88
2021/07/27 12:00:28;;;;;;;4.15;2.40;;;25.60;59.70;;;;;;5003632;28;20038;-87
2021/07/27 12:02:54;;;;;;;5.20;2.45;;;25.60;59.10;;;;;;4994465;28;20050;-83
2021/07/27 12:05:20;;;;;;;3.63;2.10;;;25.60;57.50;;;;;;5011268;28;20090;-81
2021/07/27 12:07:45;;;;;;;4.68;2.22;;;25.60;56.80;;;;;;5007465;28;20026;-82
2021/07/27 12:10:13;;;;;;;3.25;2.33;;;25.60;57.20;;;;;;4994253;28;20117;-83
2021/07/27 12:12:38;;;;;;;3.75;2.25;;;25.70;57.70;;;;;;5006622;28;20026;-84
2021/07/27 12:15:07;;;;;;;3.38;2.50;;;25.70;58.10;;;;;;5014191;28;20286;-86
2021/07/27 12:17:33;;;;;;;4.25;2.78;;;25.90;59.40;;;;;;4994566;28;20034;-84
2021/07/27 12:19:59;;;;;;;3.78;2.50;;;25.90;59.30;;;;;;5000873;28;20152;-83
2021/07/27 12:22:25;;;;;;;3.40;2.35;;;25.90;59.10;;;;;;5013657;28;20029;-83
2021/07/27 12:24:50;;;;;;;3.90;2.42;;;25.90;59.40;;;;;;5013672;28;20034;-81
2021/07/27 12:27:16;;;;;;;4.32;2.50;;;26.00;58.10;;;;;;5013215;28;20026;-83
2021/07/27 12:29:42;;;;;;;6.38;3.05;;;26.00;57.00;;;;;;5014418;28;20022;-84
2021/07/27 12:32:08;;;;;;;2.83;2.22;;;26.00;56.60;;;;;;5014545;28;20030;-84
2021/07/27 12:34:34;;;;;;;4.72;2.60;;;26.00;57.50;;;;;;5012479;28;20040;-87
2021/07/27 12:37:00;;;;;;;4.95;2.60;;;26.10;55.60;;;;;;5013910;28;20438;-93
2021/07/27 12:39:26;;;;;;;4.45;2.47;;;26.20;55.50;;;;;;5014611;28;20022;-78
2021/07/27 12:41:52;;;;;;;3.13;2.70;;;26.30;55.20;;;;;;5012434;28;20030;-79
2021/07/27 12:44:19;;;;;;;4.13;2.53;;;26.30;55.70;;;;;;5014053;28;20037;-79
2021/07/27 12:46:45;;;;;;;4.40;2.67;;;26.30;55.50;;;;;;5012462;28;20356;-81
2021/07/27 12:49:14;;;;;;;4.85;2.97;;;26.40;56.30;;;;;;4997895;28;20077;-84
2021/07/27 12:51:40;;;;;;;3.65;2.50;;;26.30;57.30;;;;;;5012488;28;20054;-82
2021/07/27 12:54:07;;;;;;;5.32;3.15;;;26.30;57.10;;;;;;5029699;28;20049;-81
2021/07/27 12:56:39;;;;;;;3.83;2.92;;;26.30;57.30;;;;;;5012775;28;20125;-83
2021/07/27 12:59:06;;;;;;;4.28;2.63;;;26.30;57.70;;;;;;5013154;28;20060;-82
2021/07/27 13:01:33;;;;;;;3.88;2.50;;;26.30;57.80;;;;;;5012617;28;20088;-83
2021/07/27 13:03:59;;;;;;;3.65;2.75;;;26.30;57.60;;;;;;5012984;28;20087;-82
2021/07/27 13:06:25;;;;;;;3.42;2.70;;;26.30;57.10;;;;;;5012621;28;20034;-83
2021/07/27 13:08:51;;;;;;;4.18;2.22;;;26.30;56.40;;;;;;4999131;28;20115;-83
2021/07/27 13:11:16;;;;;;;6.05;3.00;;;26.40;56.90;;;;;;4996845;28;20022;-83
2021/07/27 13:13:42;;;;;;;3.75;2.70;;;26.50;56.60;;;;;;5013170;28;20026;-83
2021/07/27 13:16:08;;;;;;;5.43;2.67;;;26.60;57.00;;;;;;5009863;28;20033;-82
2021/07/27 13:18:34;;;;;;;4.78;2.90;;;26.60;57.50;;;;;;5011505;28;20033;-83
2021/07/27 13:21:00;;;;;;;3.03;2.22;;;26.50;57.90;;;;;;5013721;28;20030;-82
2021/07/27 13:23:26;;;;;;;3.25;2.50;;;26.40;57.70;;;;;;5011514;28;20050;-83
2021/07/27 13:25:52;;;;;;;4.18;2.95;;;26.40;57.20;;;;;;5011906;28;20057;-82
2021/07/27 13:28:17;;;;;;;5.38;3.03;;;26.50;57.80;;;;;;5012105;28;20029;-83
2021/07/27 13:30:43;;;;;;;3.58;2.60;;;26.50;57.40;;;;;;5011942;28;20075;-82
2021/07/27 13:33:09;;;;;;;3.45;2.58;;;26.40;57.50;;;;;;5011552;28;20378;-83
2021/07/27 13:35:35;;;;;;;3.20;2.60;;;26.40;57.60;;;;;;5010245;28;20148;-82
2021/07/27 13:38:00;;;;;;;4.47;2.72;;;26.30;57.30;;;;;;5012511;28;20044;-82
2021/07/27 13:40:26;;;;;;;5.10;3.03;;;26.30;57.80;;;;;;5010397;28;20379;-82
2021/07/27 13:42:52;;;;;;;3.60;2.50;;;26.30;58.30;;;;;;5012026;28;20026;-83
2021/07/27 13:45:18;;;;;;;4.30;2.50;;;26.20;58.10;;;;;;5012669;28;20034;-82
2021/07/27 13:47:44;;;;;;;4.43;2.58;;;26.10;58.30;;;;;;5011268;28;20029;-83
2021/07/27 13:50:10;;;;;;;3.63;2.67;;;26.10;57.40;;;;;;5012414;28;20471;-83
2021/07/27 13:52:35;;;;;;;3.72;2.53;;;26.20;56.60;;;;;;5000828;28;20038;-83
2021/07/27 13:55:01;;;;;;;5.72;3.03;;;26.20;55.90;;;;;;5009035;28;20040;-83
2021/07/27 13:57:27;;;;;;;4.00;2.20;;;26.40;55.00;;;;;;5011663;28;20176;-86
2021/07/27 13:59:54;;;;;;;4.25;2.80;;;26.50;55.00;;;;;;5013197;28;20022;-82
2021/07/27 14:02:20;;;;;;;9.45;5.18;;;26.60;54.50;;;;;;5010309;28;20050;-79
2021/07/27 14:04:46;;;;;;;3.72;2.70;;;26.70;54.40;;;;;;5013251;28;20558;-82
2021/07/27 14:07:12;;;;;;;3.65;2.53;;;26.70;53.20;;;;;;5012807;28;20529;-81
2021/07/27 14:09:38;;;;;;;3.63;2.53;;;26.70;53.90;;;;;;5012379;28;20073;-83
2021/07/27 14:12:04;;;;;;;3.90;2.83;;;26.70;53.30;;;;;;5013460;28;20026;-83
2021/07/27 14:14:30;;;;;;;4.03;2.72;;;26.90;53.20;;;;;;5012579;28;20136;-84